Portada
METAR-TAF:

METAR-TAF

Aeroports :

Al-Ula, Aràbia Saudita

latitud: 26-29-00N, longitud: 038-07-01E, altitud: 624 m

Observació

L'informe es va fer fa 25 minuts, a les 01:00 UTC
Vent 4 kt del Nord/Nord-Oest
Temperatura 33°C
Humitat 10%
Pressió 1011 hPa
Visibilitat 10 km o més
sense núvols per sota de 1500 mi sense presència de cumulonimbus.

METAR: OEAO 130100Z 34004KT CAVOK 33/M03 Q1011

Hora: 04:25 (01:25 UTC)

Pronòstic

L'informe es va fer fa 2 hores i 25 minuts, a les 23:00 UTC
Pronòstic vàlid del 13 a les 00 UTC al 14 a les 06 UTC
Vent 15 kt del Nord
Visibilitat: 7000 m
Evolucionant progressivament
l' 13 a les 06 UTC al 13 a les 08 UTC
Vent 10 kt del Sud/Sud-Oest
Visibilitat 10 km o més
sense núvols per sota de 1500 mi sense presència de cumulonimbus.
Evolucionant progressivament
l' 13 a les 18 UTC al 13 a les 20 UTC
Vent 15 kt del Nord
Visibilitat: 7000 m

TAF: OEAO 122300Z 1300/1406 01015KT 7000 NSC BECMG 1306/1308 20010KT CAVOK BECMG 1318/1320 35015KT 7000 NSC

Observacions i pronòstics meteorològics de més de 4000 aeroports (METAR i TAF).

Les estacions disponibles són els punts grocs i vermells al mapa.

Posi el ratolí al punt desitjat per veure el nom de l'estació.

Feu clic per veure les observacions i els pronòstics meteorològics.

Per canviar el mapa: feu clic els botons verds amb una creu de color negre per apropar; al botó verd amb un guió per allunyar la imatge; o en les fletxes verdes per a mapes adjacents.


METAR-TAF: